Terminal Aerodrome Forecast
Issued by NWS

Home | Current Version | Previous Version | Text Only | Print | Product List | Glossary On
Versions: 1 2 3 4 5 6 7 8 9 10 11 12 13 14 15 16 17 18 19 20 21
000
FTUS43 KDLH 012300
TAFHYR
TAF
KHYR 012320Z 0200/0224 VRB03KT P6SM SKC
     FM020500 00000KT 4SM BR SCT005
      TEMPO 0208/0212 1 1/2SM BR BKN003
     FM022100 22005KT P6SM SCT060=

USA.gov is the U.S. government's official web portal to all federal, state and local government web resources and services.